Oxbow, Maine
Current Conditions -  °F | °C
As of 4:35 AM on Friday 28 Nov 2014 (Local Time) from KPQI Reporting Station
Clear Clear  
Wind Chill:   Ceiling: Unl
Heat Index:   Visibility: 10mi
Dew Point:   Wind: 3mph
Humidity: 85%   Direction: 170°S
Pressure: 30"   Gusts: NA
Location:  46.42°N, 68.49°W
Report Text: KPQI 280935Z AUTO 17003KT 10SM CLR M16/M18 A3000 RMK AO1
Loading
Personal Weather Stations






























Interactive Weather Map New forecast layout! Learn more

10-Day Weather Forecast

Advertisements
Track Severe Weather on mobile